AAY982 KLIT-KPIE
Flight info
| Callsign | AAY982 |
|---|---|
| Flight time | 1h 49m |
| Altitude | 39000 |
| Route | MICKE MERDN DEFUN BANGZ2 |
| Aircraft | A20N/M-SDE2E3FGHIRWXY/LB1 |
Departure
| Time | 2026-04-24 17:05 |
|---|---|
| Airport | Bill & Hillary Clinton National Airport/Adams Field (KLIT) |
Arrival
| Time | 2026-04-24 18:54 |
|---|---|
| Airport | St. Petersburg Clearwater International Airport (KPIE) |
| Time | Latitude | Longitude | Altitude | Speed | Heading |
|---|---|---|---|---|---|
| 2026-04-24 17:01 | 34.73066 | -92.22084 | 267 ft | 0 kts | 148° |
| 2026-04-24 17:01 | 34.73064 | -92.22082 | 267 ft | 2 kts | 148° |
| 2026-04-24 17:02 | 34.73051 | -92.22088 | 267 ft | 2 kts | 236° |
| 2026-04-24 17:02 | 34.73064 | -92.22156 | 267 ft | 16 kts | 290° |
| 2026-04-24 17:02 | 34.73119 | -92.22331 | 267 ft | 25 kts | 291° |
| 2026-04-24 17:02 | 34.73132 | -92.22490 | 267 ft | 20 kts | 228° |
| 2026-04-24 17:03 | 34.72935 | -92.22739 | 266 ft | 24 kts | 226° |
| 2026-04-24 17:03 | 34.72820 | -92.22885 | 266 ft | 25 kts | 225° |
| 2026-04-24 17:03 | 34.72698 | -92.23041 | 266 ft | 27 kts | 226° |
| 2026-04-24 17:04 | 34.72565 | -92.23212 | 267 ft | 29 kts | 226° |
| 2026-04-24 17:04 | 34.72289 | -92.23563 | 266 ft | 28 kts | 226° |
| 2026-04-24 17:04 | 34.72272 | -92.23667 | 264 ft | 15 kts | 297° |
| 2026-04-24 17:05 | 34.72359 | -92.23669 | 263 ft | 16 kts | 46° |
| 2026-04-24 17:05 | 34.72553 | -92.23417 | 265 ft | 92 kts | 48° |
| 2026-04-24 17:05 | 34.74125 | -92.21488 | 1299 ft | 193 kts | 44° |
| 2026-04-24 17:06 | 34.75179 | -92.20297 | 2033 ft | 230 kts | 42° |
| 2026-04-24 17:06 | 34.77192 | -92.16740 | 3933 ft | 274 kts | 62° |
| 2026-04-24 17:06 | 34.77725 | -92.14509 | 5251 ft | 280 kts | 89° |
| 2026-04-24 17:07 | 34.77610 | -92.12936 | 6086 ft | 284 kts | 107° |
| 2026-04-24 17:07 | 34.76328 | -92.10150 | 7776 ft | 287 kts | 133° |
| 2026-04-24 17:07 | 34.73602 | -92.06497 | 10301 ft | 300 kts | 136° |
| 2026-04-24 17:08 | 34.70620 | -92.02420 | 11681 ft | 348 kts | 134° |
| 2026-04-24 17:08 | 34.69025 | -92.00134 | 12652 ft | 359 kts | 134° |
| 2026-04-24 17:08 | 34.67410 | -91.97789 | 13773 ft | 365 kts | 134° |
| 2026-04-24 17:09 | 34.64102 | -91.92984 | 15766 ft | 377 kts | 134° |
| 2026-04-24 17:09 | 34.60666 | -91.88018 | 17615 ft | 391 kts | 134° |
| 2026-04-24 17:10 | 34.58900 | -91.85471 | 18538 ft | 397 kts | 134° |
| 2026-04-24 17:10 | 34.53484 | -91.77673 | 21058 ft | 412 kts | 134° |
| 2026-04-24 17:11 | 34.47825 | -91.69548 | 23500 ft | 428 kts | 134° |
| 2026-04-24 17:12 | 34.38002 | -91.55485 | 26786 ft | 448 kts | 133° |
| 2026-04-24 18:54 | 27.90761 | -82.69119 | 19 ft | 0 kts | 191° |